Time;durP1;ratioP1;P1;durP2;ratioP2;P2;SDS_P1;SDS_P2;PMS_P1;PMS_P2;Temp;Humidity;BMP_temperature;BMP_pressure;BME280_temperature;BME280_humidity;BME280_pressure;Samples;Min_cycle;Max_cycle;Signal;HPM_P1;HPM_P2
2022/09/07 00:01:30;;;;;;;10.57;3.50;;;;;;;29.29;31.27;100645.16;5034638;28;20025;-54
2022/09/07 00:03:57;;;;;;;12.38;4.30;;;;;;;29.62;31.28;100663.72;5034463;28;20475;-53
2022/09/07 00:06:24;;;;;;;9.57;4.57;;;;;;;29.59;31.83;100656.91;5034015;28;20471;-55
2022/09/07 00:08:51;;;;;;;14.57;4.15;;;;;;;29.58;32.22;100654.50;5034009;28;20391;-55
2022/09/07 00:11:18;;;;;;;11.52;3.97;;;;;;;29.44;32.32;100654.75;5034428;28;20021;-55
2022/09/07 00:13:47;;;;;;;12.80;4.22;;;;;;;29.28;32.26;100662.03;5034275;28;20033;-55
2022/09/07 00:16:19;;;;;;;11.88;3.65;;;;;;;29.40;32.08;100660.13;5034373;28;20030;-55
2022/09/07 00:18:46;;;;;;;9.77;3.35;;;;;;;29.13;32.26;100650.47;5034022;28;20022;-52
2022/09/07 00:21:14;;;;;;;10.60;4.35;;;;;;;29.42;32.68;100662.56;5034724;28;20025;-53
2022/09/07 00:23:40;;;;;;;12.25;4.03;;;;;;;29.01;32.99;100664.16;5034030;28;20026;-51
2022/09/07 00:26:13;;;;;;;8.13;3.70;;;;;;;28.93;33.15;100659.53;5033821;28;20028;-50
2022/09/07 00:28:40;;;;;;;7.60;3.67;;;;;;;28.89;33.34;100666.81;5033767;28;20025;-54
2022/09/07 00:31:12;;;;;;;14.40;4.60;;;;;;;28.68;33.91;100672.28;5034227;28;20035;-54
2022/09/07 00:33:38;;;;;;;12.38;4.30;;;;;;;28.53;34.44;100667.31;5047963;28;20021;-54
2022/09/07 00:36:05;;;;;;;12.85;3.67;;;;;;;28.67;34.31;100668.72;5053552;28;20056;-54
2022/09/07 00:38:31;;;;;;;16.42;3.95;;;;;;;28.87;34.15;100666.31;5053149;28;20029;-55
2022/09/07 00:40:58;;;;;;;8.05;3.50;;;;;;;28.91;33.33;100664.53;5053463;28;20067;-58
2022/09/07 00:43:49;;;;;;;10.68;4.03;;;;;;;28.98;33.59;100664.81;5053380;28;20053;-55
2022/09/07 00:46:22;;;;;;;7.75;3.35;;;;;;;29.05;33.40;100670.63;5031097;28;20507;-55
2022/09/07 00:48:48;;;;;;;12.25;4.05;;;;;;;29.12;33.45;100665.38;5033683;28;20065;-53
2022/09/07 00:51:21;;;;;;;9.55;3.67;;;;;;;28.81;33.20;100660.19;5033425;28;20483;-53
2022/09/07 00:53:56;;;;;;;12.13;3.60;;;;;;;28.73;34.17;100657.50;5033209;28;20025;-53
2022/09/07 00:56:26;;;;;;;13.15;4.10;;;;;;;28.71;34.20;100657.84;5033271;28;20239;-51
2022/09/07 00:58:52;;;;;;;9.75;3.70;;;;;;;28.72;34.18;100662.22;5034389;28;20036;-54
2022/09/07 01:01:18;;;;;;;11.15;3.83;;;;;;;28.44;34.37;100661.88;5033334;28;20535;-55
2022/09/07 01:03:49;;;;;;;9.38;3.63;;;;;;;28.56;34.23;100666.66;5033174;28;20029;-56
2022/09/07 01:06:17;;;;;;;9.65;3.65;;;;;;;28.54;32.76;100674.44;5033683;28;20498;-56
2022/09/07 01:08:46;;;;;;;9.23;3.92;;;;;;;28.60;32.98;100671.19;5038731;28;20033;-56
2022/09/07 01:11:12;;;;;;;8.68;3.33;;;;;;;28.56;33.24;100667.47;5041746;28;20024;-55
2022/09/07 01:13:41;;;;;;;8.02;3.70;;;;;;;28.71;33.47;100659.81;5044388;28;20057;-55
2022/09/07 01:16:31;;;;;;;13.07;3.55;;;;;;;28.82;32.70;100666.53;5041557;28;20044;-54
2022/09/07 01:19:15;;;;;;;8.55;3.53;;;;;;;28.79;32.54;100672.69;5041483;28;20036;-55
2022/09/07 01:22:07;;;;;;;5.47;2.80;;;;;;;28.46;32.98;100683.56;5047390;28;20096;-55
2022/09/07 01:25:10;;;;;;;11.90;3.78;;;;;;;28.64;32.99;100682.31;5023032;28;20045;-55
2022/09/07 01:27:44;;;;;;;7.40;3.35;;;;;;;28.78;32.10;100682.91;5032926;28;20490;-55
2022/09/07 01:30:15;;;;;;;8.45;3.58;;;;;;;28.79;32.26;100697.50;5032840;28;20108;-56
2022/09/07 01:33:02;;;;;;;8.27;3.50;;;;;;;28.79;32.44;100697.50;5032805;28;20147;-55
2022/09/07 01:35:42;;;;;;;8.93;3.58;;;;;;;28.66;32.72;100691.88;5036658;28;20051;-55
2022/09/07 01:38:22;;;;;;;9.82;3.72;;;;;;;28.52;33.17;100699.56;5050127;28;20119;-55
2022/09/07 01:41:12;;;;;;;10.07;3.78;;;;;;;28.37;33.39;100697.34;5039296;28;20048;-55
2022/09/07 01:44:05;;;;;;;10.68;3.45;;;;;;;28.21;33.57;100693.50;5050795;28;20031;-55
2022/09/07 01:46:52;;;;;;;12.55;3.63;;;;;;;28.23;33.62;100694.78;5041839;28;20037;-55
2022/09/07 01:49:25;;;;;;;12.20;3.78;;;;;;;28.29;33.04;100685.19;5048630;28;20025;-55
2022/09/07 01:51:57;;;;;;;12.37;3.30;;;;;;;28.37;32.91;100691.84;5045997;28;20546;-55
2022/09/07 01:54:46;;;;;;;9.45;3.95;;;;;;;28.31;33.30;100698.63;5050936;28;20055;-56
2022/09/07 01:57:22;;;;;;;15.30;4.55;;;;;;;27.84;34.87;100695.84;5043496;28;20048;-55
2022/09/07 02:00:11;;;;;;;15.75;3.42;;;;;;;28.03;34.95;100689.97;5040625;28;20075;-56
2022/09/07 02:02:43;;;;;;;12.00;3.88;;;;;;;28.07;35.25;100697.25;5040888;28;20468;-55
2022/09/07 02:05:16;;;;;;;8.93;4.00;;;;;;;28.01;34.79;100692.25;5040487;28;20037;-55
2022/09/07 02:07:49;;;;;;;13.98;4.15;;;;;;;27.55;35.53;100696.47;5051489;28;20107;-55
2022/09/07 02:10:47;;;;;;;10.82;4.68;;;;;;;27.47;36.08;100689.81;5048668;28;20021;-55
2022/09/07 02:13:24;;;;;;;13.35;4.40;;;;;;;26.97;36.75;100698.47;5026913;28;20493;-56
2022/09/07 02:16:00;;;;;;;11.48;4.18;;;;;;;26.84;36.87;100694.72;5045995;28;20103;-52
2022/09/07 02:18:32;;;;;;;11.85;4.25;;;;;;;26.68;37.25;100696.28;5048361;28;20027;-55
2022/09/07 02:21:00;;;;;;;10.43;4.47;;;;;;;26.62;37.61;100702.25;5042039;28;20364;-55
2022/09/07 02:23:37;;;;;;;13.30;4.13;;;;;;;26.51;37.64;100708.00;5041760;28;20032;-55
2022/09/07 02:26:09;;;;;;;11.57;4.32;;;;;;;26.51;37.83;100707.19;5051400;28;20043;-54
2022/09/07 02:28:38;;;;;;;12.63;4.72;;;;;;;26.38;37.70;100702.59;5049845;28;20087;-55
2022/09/07 02:31:05;;;;;;;11.82;3.85;;;;;;;26.43;37.61;100708.78;5050453;28;20107;-54
2022/09/07 02:33:31;;;;;;;10.45;4.07;;;;;;;26.13;38.18;100710.34;5048880;28;20036;-55
2022/09/07 02:35:59;;;;;;;13.55;5.10;;;;;;;26.23;38.14;100709.28;5038387;28;20349;-54
2022/09/07 02:38:25;;;;;;;16.88;4.32;;;;;;;25.89;38.80;100707.94;5046211;28;20072;-54
2022/09/07 02:40:57;;;;;;;9.77;4.13;;;;;;;26.11;38.20;100709.06;5047126;28;20037;-54
2022/09/07 02:43:24;;;;;;;7.93;4.45;;;;;;;26.23;37.94;100712.84;5042434;28;20428;-55
2022/09/07 02:46:09;;;;;;;16.35;5.10;;;;;;;26.14;38.09;100717.44;5036569;28;20044;-55
2022/09/07 02:48:57;;;;;;;12.02;4.03;;;;;;;26.07;38.28;100708.88;5038207;28;20072;-55
2022/09/07 02:51:44;;;;;;;7.90;3.78;;;;;;;26.09;38.46;100712.09;5047453;28;20509;-55
2022/09/07 02:54:52;;;;;;;11.98;4.32;;;;;;;25.98;38.50;100724.44;5040324;28;20098;-55
2022/09/07 02:57:29;;;;;;;10.30;4.13;;;;;;;25.81;38.67;100716.91;5047175;28;20040;-56
2022/09/07 03:00:14;;;;;;;13.15;4.38;;;;;;;25.76;38.82;100717.03;5031076;28;20025;-56
2022/09/07 03:03:02;;;;;;;12.05;4.22;;;;;;;25.79;38.72;100717.22;5029682;28;20040;-56
2022/09/07 03:05:51;;;;;;;17.10;4.95;;;;;;;25.32;39.30;100725.94;5029919;28;20038;-55
2022/09/07 03:08:25;;;;;;;18.50;5.05;;;;;;;25.52;39.08;100722.75;5034361;28;20087;-55
2022/09/07 03:10:53;;;;;;;18.47;5.57;;;;;;;25.63;39.06;100731.56;5031497;28;20030;-55
2022/09/07 03:13:20;;;;;;;14.43;4.82;;;;;;;25.71;38.79;100733.59;5035023;28;20021;-56
2022/09/07 03:15:46;;;;;;;13.77;5.00;;;;;;;25.62;39.03;100740.91;5047207;28;20041;-56
2022/09/07 03:18:13;;;;;;;14.25;4.95;;;;;;;25.50;39.42;100728.56;5039791;28;20041;-56
2022/09/07 03:20:39;;;;;;;12.00;4.60;;;;;;;25.35;39.54;100748.06;5039609;28;20053;-55
2022/09/07 03:23:05;;;;;;;13.63;4.22;;;;;;;25.20;39.94;100757.41;5032645;28;20025;-53
2022/09/07 03:25:31;;;;;;;14.43;4.47;;;;;;;25.38;39.57;100746.66;5038970;28;20025;-55
2022/09/07 03:27:57;;;;;;;12.18;4.60;;;;;;;25.19;39.61;100757.72;5033110;28;20017;-55
2022/09/07 03:30:24;;;;;;;17.92;5.38;;;;;;;25.17;39.54;100758.06;5031198;28;20021;-55
2022/09/07 03:32:50;;;;;;;17.25;5.03;;;;;;;25.08;40.19;100751.66;5037406;28;20022;-55
2022/09/07 03:35:17;;;;;;;12.68;4.75;;;;;;;24.98;40.28;100762.78;5050512;28;20029;-55
2022/09/07 03:37:43;;;;;;;10.82;5.03;;;;;;;24.85;40.64;100764.41;5048298;28;20045;-55
2022/09/07 03:40:12;;;;;;;11.57;4.70;;;;;;;24.73;40.67;100764.91;5031630;28;20041;-55
2022/09/07 03:42:38;;;;;;;9.32;4.00;;;;;;;24.88;40.27;100782.16;5032347;28;20025;-56
2022/09/07 03:45:06;;;;;;;10.32;4.40;;;;;;;24.89;40.55;100792.81;5036688;28;20698;-55
2022/09/07 03:47:36;;;;;;;22.23;5.03;;;;;;;24.79;40.65;100792.19;5039748;28;20429;-56
2022/09/07 03:50:03;;;;;;;11.50;4.68;;;;;;;24.86;40.54;100804.34;5061885;28;20017;-55
2022/09/07 03:52:30;;;;;;;9.10;4.07;;;;;;;24.69;40.38;100798.66;5051065;28;20167;-55
2022/09/07 03:54:56;;;;;;;19.92;4.95;;;;;;;24.75;40.37;100809.19;5040235;28;20030;-56
2022/09/07 03:57:22;;;;;;;12.73;4.53;;;;;;;24.56;40.43;100807.66;5046616;28;20022;-56
2022/09/07 03:59:49;;;;;;;11.02;4.13;;;;;;;24.68;40.54;100800.59;5035809;28;20154;-56
2022/09/07 04:02:16;;;;;;;9.43;4.03;;;;;;;24.65;40.23;100806.69;5042105;28;20036;-55
2022/09/07 04:04:44;;;;;;;12.48;4.70;;;;;;;24.93;40.08;100809.44;5054108;28;20386;-56
2022/09/07 04:07:11;;;;;;;8.30;3.90;;;;;;;25.06;39.95;100810.59;5063846;28;20049;-55
2022/09/07 04:09:37;;;;;;;12.93;4.78;;;;;;;24.92;40.68;100808.63;5034066;28;20049;-55
2022/09/07 04:12:04;;;;;;;12.57;4.43;;;;;;;25.01;40.25;100809.53;5034018;28;20041;-55
2022/09/07 04:14:30;;;;;;;12.20;4.57;;;;;;;24.90;40.41;100810.84;5047116;28;20021;-55
2022/09/07 04:16:56;;;;;;;14.25;4.78;;;;;;;24.81;41.06;100814.59;5054164;28;20506;-56
2022/09/07 04:19:22;;;;;;;14.00;4.82;;;;;;;24.72;41.78;100812.56;5050610;28;20025;-55
2022/09/07 04:21:49;;;;;;;15.15;5.38;;;;;;;24.63;42.72;100819.03;5045318;28;20375;-56
2022/09/07 04:24:16;;;;;;;14.70;5.25;;;;;;;24.61;42.91;100824.81;5046435;28;20020;-56
2022/09/07 04:26:43;;;;;;;17.65;5.45;;;;;;;24.54;43.19;100821.66;5043974;28;20069;-55
2022/09/07 04:29:11;;;;;;;12.73;5.15;;;;;;;24.53;43.07;100830.13;5039165;28;20064;-56
2022/09/07 04:31:38;;;;;;;13.57;5.57;;;;;;;24.52;43.52;100828.50;5038248;28;20038;-56
2022/09/07 04:34:05;;;;;;;17.58;5.40;;;;;;;24.31;43.98;100828.81;5035890;28;20179;-56
2022/09/07 04:36:32;;;;;;;17.58;5.60;;;;;;;24.38;43.86;100829.31;5036262;28;20038;-55
2022/09/07 04:39:01;;;;;;;19.67;5.43;;;;;;;24.31;43.96;100823.34;5033489;28;20041;-56
2022/09/07 04:41:29;;;;;;;14.98;5.60;;;;;;;24.32;43.61;100819.53;5033742;28;20025;-56
2022/09/07 04:44:00;;;;;;;16.55;5.72;;;;;;;24.32;43.66;100824.16;5033769;28;20026;-56
2022/09/07 04:46:29;;;;;;;17.63;5.30;;;;;;;24.24;43.69;100820.19;5033972;28;20580;-56
2022/09/07 04:48:57;;;;;;;17.90;6.25;;;;;;;24.00;44.54;100824.94;5033458;28;20025;-56
2022/09/07 04:51:27;;;;;;;15.25;5.53;;;;;;;23.89;45.15;100824.28;5034089;28;20070;-55
2022/09/07 04:53:54;;;;;;;15.45;5.57;;;;;;;23.93;45.88;100828.88;5053682;28;20096;-55
2022/09/07 04:56:22;;;;;;;18.05;5.68;;;;;;;23.67;47.10;100828.41;5053682;28;20156;-55
2022/09/07 04:58:48;;;;;;;13.70;5.50;;;;;;;23.70;47.05;100832.44;5053936;28;20383;-55
2022/09/07 05:01:18;;;;;;;19.98;5.85;;;;;;;23.58;47.13;100835.59;5053558;28;20115;-56
2022/09/07 05:03:44;;;;;;;15.85;6.03;;;;;;;23.43;47.54;100827.56;5049551;28;20163;-53
2022/09/07 05:06:11;;;;;;;20.88;6.55;;;;;;;23.40;47.27;100831.72;5053482;28;20033;-54
2022/09/07 05:08:42;;;;;;;14.40;6.18;;;;;;;23.21;48.30;100822.69;5053221;28;20062;-55
2022/09/07 05:11:10;;;;;;;15.05;5.68;;;;;;;22.97;48.80;100821.84;5053411;28;20104;-54
2022/09/07 05:13:36;;;;;;;16.58;6.28;;;;;;;22.96;48.85;100831.13;5037699;28;20026;-56
2022/09/07 05:16:28;;;;;;;20.92;6.50;;;;;;;22.50;50.18;100832.34;5033790;28;20508;-55
2022/09/07 05:19:00;;;;;;;16.05;6.13;;;;;;;22.61;50.38;100828.44;5032951;28;20030;-55
2022/09/07 05:21:29;;;;;;;22.08;7.22;;;;;;;22.80;49.39;100831.25;5036003;28;20140;-56
2022/09/07 05:23:57;;;;;;;15.80;5.30;;;;;;;22.72;49.63;100842.81;5033005;28;20061;-56
2022/09/07 05:26:26;;;;;;;17.48;6.03;;;;;;;22.74;49.75;100840.59;5033187;28;20037;-56
2022/09/07 05:28:52;;;;;;;17.05;5.68;;;;;;;22.88;49.22;100838.84;5041353;28;20032;-56
2022/09/07 05:31:21;;;;;;;16.52;6.70;;;;;;;22.70;49.13;100842.25;5052551;28;20428;-56
2022/09/07 05:33:52;;;;;;;13.25;5.82;;;;;;;22.57;49.68;100834.75;5036480;28;20432;-57
2022/09/07 05:36:22;;;;;;;17.55;6.80;;;;;;;22.92;49.05;100842.63;5032672;28;20041;-57
2022/09/07 05:38:48;;;;;;;16.08;5.68;;;;;;;22.89;49.21;100843.22;5033063;28;20036;-56
2022/09/07 05:41:20;;;;;;;17.70;7.07;;;;;;;22.63;49.78;100837.13;5032500;28;20479;-56
2022/09/07 05:43:47;;;;;;;20.13;6.13;;;;;;;22.53;49.79;100850.06;5032658;28;20021;-57
2022/09/07 05:46:15;;;;;;;15.43;5.80;;;;;;;22.40;50.10;100854.25;5032423;28;20041;-57
2022/09/07 05:48:42;;;;;;;17.90;6.10;;;;;;;22.46;49.86;100853.09;5032671;28;20353;-56
2022/09/07 05:51:09;;;;;;;18.98;6.63;;;;;;;22.37;50.06;100858.34;5032553;28;20543;-57
2022/09/07 05:53:37;;;;;;;19.85;5.95;;;;;;;22.44;49.98;100863.50;5032595;28;20128;-56
2022/09/07 05:56:04;;;;;;;21.48;6.25;;;;;;;22.50;49.53;100867.00;5032760;28;20056;-56
2022/09/07 05:58:31;;;;;;;18.50;6.05;;;;;;;22.32;50.02;100852.97;5032054;28;20029;-55
2022/09/07 06:01:06;;;;;;;18.23;7.20;;;;;;;22.25;49.73;100857.91;5033066;28;20034;-56
2022/09/07 06:03:34;;;;;;;19.05;5.53;;;;;;;22.18;50.42;100865.59;5032513;28;20030;-56
2022/09/07 06:06:02;;;;;;;23.92;7.18;;;;;;;22.14;50.62;100867.25;5032273;28;20036;-56
2022/09/07 06:08:29;;;;;;;21.45;6.80;;;;;;;22.20;50.42;100863.38;5032083;28;20029;-57
2022/09/07 06:10:56;;;;;;;16.75;6.47;;;;;;;22.32;50.03;100866.59;5032070;28;20021;-56
2022/09/07 06:13:22;;;;;;;22.48;6.60;;;;;;;22.17;50.65;100860.44;5030887;28;20483;-56
2022/09/07 06:15:48;;;;;;;22.50;6.82;;;;;;;22.11;50.59;100859.66;5031250;28;20139;-56
2022/09/07 06:18:15;;;;;;;18.67;6.75;;;;;;;21.89;51.35;100860.00;5031911;28;20083;-56
2022/09/07 06:20:41;;;;;;;21.02;7.07;;;;;;;22.05;51.17;100864.28;5031877;28;20100;-57
2022/09/07 06:23:07;;;;;;;21.88;7.75;;;;;;;21.99;51.04;100862.69;5032185;28;20117;-57
2022/09/07 06:25:33;;;;;;;18.63;7.03;;;;;;;21.89;51.40;100868.19;5032085;28;20029;-55
2022/09/07 06:27:59;;;;;;;23.08;7.70;;;;;;;21.91;52.06;100867.91;5035330;28;20039;-56
2022/09/07 06:30:26;;;;;;;24.80;7.43;;;;;;;21.68;52.81;100870.19;5032304;28;20018;-56
2022/09/07 06:32:52;;;;;;;27.75;7.13;;;;;;;21.73;53.49;100878.34;5032170;28;20030;-55
2022/09/07 06:35:18;;;;;;;26.55;7.40;;;;;;;21.78;53.51;100872.06;5031906;28;20025;-56
2022/09/07 06:37:44;;;;;;;23.65;7.13;;;;;;;21.79;53.63;100879.94;5032130;28;20400;-55
2022/09/07 06:40:11;;;;;;;26.48;6.75;;;;;;;21.75;53.79;100897.13;5032085;28;20083;-55
2022/09/07 06:42:38;;;;;;;21.42;7.28;;;;;;;21.80;54.00;100887.03;5031240;28;20051;-56
2022/09/07 06:45:05;;;;;;;24.85;7.50;;;;;;;21.64;54.39;100888.19;5031283;28;20116;-56
2022/09/07 06:47:31;;;;;;;21.42;7.40;;;;;;;21.62;54.98;100879.47;5049808;28;20021;-56
2022/09/07 06:49:57;;;;;;;28.10;7.68;;;;;;;21.71;54.43;100885.16;5051600;28;20120;-56
2022/09/07 06:52:24;;;;;;;22.92;7.40;;;;;;;21.64;55.41;100898.25;5051259;28;20053;-56
2022/09/07 06:54:50;;;;;;;25.63;8.13;;;;;;;21.47;55.99;100887.69;5051536;28;20048;-56
2022/09/07 06:57:16;;;;;;;30.55;8.05;;;;;;;21.59;56.18;100896.38;5051208;28;20108;-56
2022/09/07 06:59:42;;;;;;;30.83;8.40;;;;;;;21.45;56.01;100898.06;5051788;28;20475;-56
2022/09/07 07:02:12;;;;;;;27.38;8.18;;;;;;;21.26;56.84;100901.34;5050873;28;20032;-56
2022/09/07 07:04:38;;;;;;;33.25;8.32;;;;;;;21.31;56.51;100900.53;5031367;28;20025;-57
2022/09/07 07:07:04;;;;;;;33.40;7.43;;;;;;;21.11;57.39;100906.00;5035518;28;20028;-56
2022/09/07 07:09:30;;;;;;;27.70;7.22;;;;;;;21.06;57.92;100904.09;5031232;28;20030;-56
2022/09/07 07:11:57;;;;;;;33.83;8.27;;;;;;;21.04;58.18;100900.81;5031553;28;20555;-54
2022/09/07 07:14:23;;;;;;;31.65;8.05;;;;;;;20.92;58.45;100905.75;5042422;28;20022;-54
2022/09/07 07:16:49;;;;;;;34.75;8.35;;;;;;;20.97;58.52;100905.75;5051294;28;20033;-54
2022/09/07 07:19:15;;;;;;;26.95;8.23;;;;;;;21.06;58.56;100912.28;5051135;28;20036;-54
2022/09/07 07:21:41;;;;;;;25.05;7.65;;;;;;;20.99;58.78;100903.59;5050274;28;20032;-54
2022/09/07 07:24:08;;;;;;;25.48;8.25;;;;;;;20.87;59.58;100909.28;5052960;28;20471;-54
2022/09/07 07:26:34;;;;;;;28.77;7.72;;;;;;;20.61;60.43;100918.53;5053505;28;20395;-54
2022/09/07 07:29:00;;;;;;;29.48;7.97;;;;;;;20.55;60.66;100915.00;5054710;28;20021;-54
2022/09/07 07:31:27;;;;;;;30.90;9.25;;;;;;;20.74;60.26;100915.28;5041244;28;20135;-54
2022/09/07 07:33:53;;;;;;;31.15;8.23;;;;;;;20.74;60.75;100923.44;5047511;28;20033;-54
2022/09/07 07:36:24;;;;;;;30.48;8.27;;;;;;;20.71;60.45;100929.41;5052475;28;20045;-54
2022/09/07 07:38:53;;;;;;;26.58;8.32;;;;;;;20.69;60.94;100934.31;5054355;28;20025;-54
2022/09/07 07:41:22;;;;;;;34.55;8.88;;;;;;;20.47;62.06;100935.38;5049613;28;20036;-54
2022/09/07 07:43:59;;;;;;;28.25;8.55;;;;;;;20.44;62.41;100940.50;5053430;28;20021;-54
2022/09/07 07:46:26;;;;;;;34.97;8.35;;;;;;;20.31;62.72;100937.19;5052997;28;20052;-54
2022/09/07 07:48:53;;;;;;;27.35;8.35;;;;;;;20.29;63.43;100938.56;5043168;28;20526;-54
2022/09/07 07:51:19;;;;;;;27.13;8.18;;;;;;;20.31;63.00;100944.53;5040640;28;20076;-54
2022/09/07 07:53:46;;;;;;;34.88;8.63;;;;;;;20.25;63.75;100935.56;5039455;28;20044;-54
2022/09/07 07:56:13;;;;;;;28.08;8.10;;;;;;;20.35;63.45;100939.41;5033468;28;20113;-54
2022/09/07 07:58:42;;;;;;;29.95;8.80;;;;;;;20.38;62.97;100936.97;5034088;28;20127;-54
2022/09/07 08:01:14;;;;;;;35.88;9.15;;;;;;;20.22;63.91;100938.84;5034388;28;20057;-54
2022/09/07 08:03:46;;;;;;;31.08;8.30;;;;;;;20.35;63.69;100942.13;5034600;28;20030;-54
2022/09/07 08:06:16;;;;;;;29.50;8.25;;;;;;;20.33;64.01;100941.59;5043834;28;20028;-54
2022/09/07 08:08:44;;;;;;;42.33;9.18;;;;;;;20.16;64.28;100937.19;5034296;28;20033;-53
2022/09/07 08:11:16;;;;;;;34.35;8.63;;;;;;;20.21;64.23;100936.34;5034511;28;20105;-54
2022/09/07 08:13:44;;;;;;;31.73;8.85;;;;;;;20.22;64.37;100944.28;5034010;28;20029;-54
2022/09/07 08:16:12;;;;;;;33.05;8.18;;;;;;;20.05;64.54;100943.66;5034233;28;20048;-54
2022/09/07 08:18:39;;;;;;;27.15;9.10;;;;;;;20.06;65.30;100948.03;5033627;28;20034;-54
2022/09/07 08:21:11;;;;;;;34.85;9.00;;;;;;;19.87;65.73;100950.38;5033889;28;20042;-54
2022/09/07 08:23:39;;;;;;;32.42;8.75;;;;;;;19.62;66.64;100947.56;5034187;28;20135;-55
2022/09/07 08:26:05;;;;;;;31.60;8.88;;;;;;;19.76;66.16;100946.78;5034095;28;20029;-55
2022/09/07 08:28:35;;;;;;;31.60;8.07;;;;;;;19.68;66.50;100952.75;5039419;28;20112;-55
2022/09/07 08:31:11;;;;;;;29.67;8.60;;;;;;;19.80;66.25;100949.00;5036188;28;20029;-55
2022/09/07 08:33:37;;;;;;;31.10;8.90;;;;;;;19.68;66.67;100960.06;5044497;28;20087;-55
2022/09/07 08:36:07;;;;;;;34.72;9.13;;;;;;;19.69;66.74;100967.13;5033606;28;20047;-56
2022/09/07 08:38:35;;;;;;;39.38;9.20;;;;;;;19.82;66.56;100972.06;5044344;28;20036;-55
2022/09/07 08:41:03;;;;;;;33.92;9.57;;;;;;;19.90;66.16;100989.78;5050536;28;20020;-55
2022/09/07 08:44:02;;;;;;;37.10;9.25;;;;;;;19.74;66.68;100989.69;5052213;28;20033;-55
2022/09/07 08:46:47;;;;;;;34.30;9.10;;;;;;;19.82;66.67;100998.44;5034039;28;20029;-55
2022/09/07 08:49:22;;;;;;;30.30;9.27;;;;;;;19.79;66.80;100978.06;5046764;28;20037;-55
2022/09/07 08:52:18;;;;;;;31.48;9.07;;;;;;;19.77;67.25;100975.63;5033797;28;20029;-55
2022/09/07 08:55:01;;;;;;;34.35;8.95;;;;;;;19.59;67.86;100984.19;5037804;28;20487;-55
2022/09/07 08:57:32;;;;;;;30.85;8.85;;;;;;;19.60;67.82;100977.69;5052786;28;20037;-55
2022/09/07 09:00:06;;;;;;;41.47;9.65;;;;;;;19.65;68.16;100974.16;5042576;28;20032;-55
2022/09/07 09:02:33;;;;;;;39.78;9.50;;;;;;;19.64;68.04;100976.06;5037626;28;20030;-55
2022/09/07 09:04:59;;;;;;;38.90;9.85;;;;;;;19.61;68.22;100967.66;5036409;28;20025;-55
2022/09/07 09:07:39;;;;;;;37.63;8.43;;;;;;;19.57;68.50;100966.50;5033248;28;20031;-55
2022/09/07 09:10:17;;;;;;;32.80;8.77;;;;;;;19.63;68.63;100952.72;5033738;28;20057;-55
2022/09/07 09:13:02;;;;;;;44.03;9.07;;;;;;;19.82;67.86;100954.97;5033634;28;20033;-55
2022/09/07 09:15:51;;;;;;;27.30;8.43;;;;;;;19.78;68.52;100960.13;5032692;28;20360;-55
2022/09/07 09:18:50;;;;;;;36.35;9.77;;;;;;;19.82;68.31;100955.78;5035387;28;20395;-55
2022/09/07 09:21:18;;;;;;;39.78;9.48;;;;;;;19.87;68.44;100953.09;5036153;28;20479;-55
2022/09/07 09:23:49;;;;;;;29.17;9.20;;;;;;;19.81;68.49;100953.34;5035754;28;20059;-55
2022/09/07 09:26:27;;;;;;;34.92;9.38;;;;;;;19.59;69.12;100964.34;5035901;28;20048;-55
2022/09/07 09:28:54;;;;;;;32.25;9.20;;;;;;;19.57;69.61;100953.75;5032809;28;20026;-55
2022/09/07 09:31:31;;;;;;;39.50;8.20;;;;;;;19.62;69.09;100955.69;5032842;28;20034;-55
2022/09/07 09:34:16;;;;;;;35.15;8.93;;;;;;;19.68;68.94;100949.22;5032813;28;20053;-55
2022/09/07 09:36:52;;;;;;;38.42;8.38;;;;;;;19.73;68.52;100951.94;5032453;28;20056;-55
2022/09/07 09:39:25;;;;;;;29.02;8.45;;;;;;;19.87;68.37;100949.56;5032314;28;20039;-55
2022/09/07 09:41:53;;;;;;;35.70;8.80;;;;;;;19.96;67.99;100961.56;5033707;28;20018;-55
2022/09/07 09:44:21;;;;;;;27.90;8.48;;;;;;;19.82;68.50;100961.22;5035302;28;20036;-54
2022/09/07 09:46:53;;;;;;;38.13;9.25;;;;;;;19.73;68.27;100957.38;5034110;28;20464;-55
2022/09/07 09:49:27;;;;;;;37.00;9.32;;;;;;;19.88;68.01;100946.59;5032596;28;20384;-55
2022/09/07 09:51:56;;;;;;;33.35;8.63;;;;;;;19.89;67.35;100961.81;5045105;28;20398;-55
2022/09/07 09:54:32;;;;;;;32.95;9.10;;;;;;;19.70;68.36;100966.84;5035582;28;20040;-55
2022/09/07 09:56:59;;;;;;;26.65;8.82;;;;;;;19.58;68.88;100974.38;5032191;28;20566;-55
2022/09/07 09:59:28;;;;;;;36.50;9.30;;;;;;;19.66;68.75;100973.91;5035755;28;20025;-55
2022/09/07 10:01:55;;;;;;;27.42;8.10;;;;;;;19.72;68.05;100964.72;5032449;28;20068;-55
2022/09/07 10:04:24;;;;;;;30.23;8.63;;;;;;;19.70;68.64;100957.91;5032298;28;20116;-55
2022/09/07 10:06:55;;;;;;;45.40;10.20;;;;;;;19.65;68.58;100957.88;5032134;28;20476;-55
2022/09/07 10:09:26;;;;;;;25.42;8.48;;;;;;;19.57;69.57;100948.31;5032393;28;20040;-54
2022/09/07 10:11:58;;;;;;;32.20;9.40;;;;;;;19.69;68.92;100948.13;5031880;28;20395;-55
2022/09/07 10:14:35;;;;;;;34.47;9.07;;;;;;;19.64;69.03;100942.66;5035300;28;20506;-55
2022/09/07 10:17:11;;;;;;;32.17;8.80;;;;;;;19.74;68.33;100943.53;5031690;28;20424;-55
2022/09/07 10:19:40;;;;;;;34.80;8.25;;;;;;;19.68;68.51;100941.88;5046378;28;20039;-55
2022/09/07 10:22:31;;;;;;;28.83;8.35;;;;;;;19.70;68.52;100941.59;5051783;28;20029;-55
2022/09/07 10:24:59;;;;;;;29.95;9.15;;;;;;;19.91;67.99;100942.53;5034488;28;20045;-55
2022/09/07 10:27:37;;;;;;;32.65;8.93;;;;;;;19.71;68.12;100938.66;5031515;28;20361;-55
2022/09/07 10:30:13;;;;;;;34.38;9.38;;;;;;;19.47;69.54;100934.66;5035696;28;20056;-55
2022/09/07 10:32:59;;;;;;;29.13;8.52;;;;;;;19.53;68.93;100934.44;5032251;28;20040;-55
2022/09/07 10:35:33;;;;;;;40.28;8.93;;;;;;;19.54;69.10;100935.25;5031316;28;20045;-55
2022/09/07 10:38:19;;;;;;;28.67;8.30;;;;;;;19.69;68.64;100937.25;5030046;28;20114;-55
2022/09/07 10:40:50;;;;;;;30.92;8.75;;;;;;;19.69;68.43;100938.06;5030660;28;20041;-55
2022/09/07 10:43:42;;;;;;;34.78;9.43;;;;;;;19.60;68.89;100942.41;5030825;28;20033;-54
2022/09/07 10:46:26;;;;;;;30.20;8.98;;;;;;;19.60;68.35;100939.69;5046804;28;20525;-55
2022/09/07 10:48:55;;;;;;;32.22;9.23;;;;;;;19.51;68.56;100931.16;5046741;28;20470;-54
2022/09/07 10:51:29;;;;;;;33.75;9.43;;;;;;;19.72;68.27;100936.75;5050477;28;20025;-55
2022/09/07 10:54:10;;;;;;;28.65;8.15;;;;;;;19.62;68.32;100939.41;5039903;28;20033;-55
2022/09/07 10:56:56;;;;;;;32.35;8.85;;;;;;;19.80;67.93;100941.66;5050565;28;20033;-55
2022/09/07 10:59:34;;;;;;;28.60;7.75;;;;;;;19.96;67.01;100940.63;5050587;28;20032;-55
2022/09/07 11:02:08;;;;;;;29.60;8.35;;;;;;;19.84;68.04;100937.34;5037795;28;20040;-55
2022/09/07 11:04:57;;;;;;;32.20;8.03;;;;;;;19.94;67.35;100940.09;5043387;28;20029;-55
2022/09/07 11:07:32;;;;;;;28.92;8.95;;;;;;;19.81;68.28;100947.91;5053832;28;20258;-55
2022/09/07 11:10:01;;;;;;;;;;;;;;;19.60;68.90;100942.41;5044990;28;20029;-54
2022/09/07 11:12:29;;;;;;;37.97;9.05;;;;;;;19.48;69.38;100950.69;5053938;28;20410;-55
2022/09/07 11:15:22;;;;;;;31.35;8.38;;;;;;;19.59;69.34;100940.72;5034301;28;20175;-55
2022/09/07 11:17:52;;;;;;;28.42;8.25;;;;;;;19.66;68.87;100938.63;5033319;28;20069;-55
2022/09/07 11:20:55;;;;;;;27.85;9.05;;;;;;;19.62;69.35;100934.78;5053407;28;20363;-55
2022/09/07 11:23:36;;;;;;;32.65;8.98;;;;;;;19.52;69.97;100938.22;5045954;28;20061;-55
2022/09/07 11:26:39;;;;;;;44.40;10.73;;;;;;;19.51;70.17;100941.22;5033749;28;20158;-55
2022/09/07 11:29:29;;;;;;;31.50;9.10;;;;;;;19.29;70.80;100948.69;5033777;28;20380;-56
2022/09/07 11:32:06;;;;;;;31.67;10.05;;;;;;;19.33;70.77;100949.78;5034312;28;20104;-55
2022/09/07 11:34:39;;;;;;;32.75;8.95;;;;;;;19.42;70.77;100945.50;5033858;28;20430;-55
2022/09/07 11:37:08;;;;;;;36.75;9.23;;;;;;;19.41;70.74;100957.44;4950698;28;2397637;-55
2022/09/07 11:39:44;;;;;;;30.23;8.73;;;;;;;19.35;70.81;100944.91;5034896;28;20452;-55
2022/09/07 11:42:34;;;;;;;36.22;9.73;;;;;;;19.35;71.18;100953.88;5039471;28;20040;-54